sensor_id;sensor_type;location;lat;lon;timestamp;pressure;altitude;pressure_sealevel;temperature;humidity
7962;BME280;4026;43.652;24.906;2023-11-21T00:00:57;98935.00;;;7.53;100.00
7962;BME280;4026;43.652;24.906;2023-11-21T00:03:26;98932.78;;;7.48;100.00
7962;BME280;4026;43.652;24.906;2023-11-21T00:05:54;98928.97;;;7.41;100.00
7962;BME280;4026;43.652;24.906;2023-11-21T00:08:22;98937.53;;;7.26;100.00
7962;BME280;4026;43.652;24.906;2023-11-21T00:10:49;98934.25;;;7.24;100.00
7962;BME280;4026;43.652;24.906;2023-11-21T00:13:16;98928.56;;;7.20;100.00
7962;BME280;4026;43.652;24.906;2023-11-21T00:15:43;98925.94;;;7.22;100.00
7962;BME280;4026;43.652;24.906;2023-11-21T00:18:10;98938.09;;;7.17;100.00
7962;BME280;4026;43.652;24.906;2023-11-21T00:20:36;98926.31;;;7.16;100.00
7962;BME280;4026;43.652;24.906;2023-11-21T00:23:03;98929.94;;;7.12;100.00
7962;BME280;4026;43.652;24.906;2023-11-21T00:25:31;98926.84;;;7.07;100.00
7962;BME280;4026;43.652;24.906;2023-11-21T00:27:58;98921.94;;;7.03;100.00
7962;BME280;4026;43.652;24.906;2023-11-21T00:30:26;98930.31;;;7.06;100.00
7962;BME280;4026;43.652;24.906;2023-11-21T00:32:54;98933.66;;;7.06;100.00
7962;BME280;4026;43.652;24.906;2023-11-21T00:35:21;98933.94;;;7.01;100.00
7962;BME280;4026;43.652;24.906;2023-11-21T00:37:47;98937.56;;;6.97;100.00
7962;BME280;4026;43.652;24.906;2023-11-21T00:40:15;98930.84;;;6.96;100.00
7962;BME280;4026;43.652;24.906;2023-11-21T00:42:47;98927.75;;;6.91;100.00
7962;BME280;4026;43.652;24.906;2023-11-21T00:45:14;98928.75;;;6.89;100.00
7962;BME280;4026;43.652;24.906;2023-11-21T00:47:41;98928.13;;;6.85;100.00
7962;BME280;4026;43.652;24.906;2023-11-21T00:50:08;98930.78;;;6.84;100.00
7962;BME280;4026;43.652;24.906;2023-11-21T00:52:35;98925.41;;;6.74;100.00
7962;BME280;4026;43.652;24.906;2023-11-21T00:55:02;98917.41;;;6.66;100.00
7962;BME280;4026;43.652;24.906;2023-11-21T00:57:29;98927.41;;;6.69;100.00
7962;BME280;4026;43.652;24.906;2023-11-21T00:59:57;98930.84;;;6.68;100.00
7962;BME280;4026;43.652;24.906;2023-11-21T01:02:24;98930.66;;;6.71;100.00
7962;BME280;4026;43.652;24.906;2023-11-21T01:04:51;98934.31;;;6.67;100.00
7962;BME280;4026;43.652;24.906;2023-11-21T01:07:18;98920.25;;;6.61;100.00
7962;BME280;4026;43.652;24.906;2023-11-21T01:09:47;98922.69;;;6.63;100.00
7962;BME280;4026;43.652;24.906;2023-11-21T01:12:14;98927.94;;;6.60;100.00
7962;BME280;4026;43.652;24.906;2023-11-21T01:14:43;98927.94;;;6.60;100.00
7962;BME280;4026;43.652;24.906;2023-11-21T01:17:12;98931.41;;;6.58;100.00
7962;BME280;4026;43.652;24.906;2023-11-21T01:19:38;98918.94;;;6.54;100.00
7962;BME280;4026;43.652;24.906;2023-11-21T01:22:05;98921.41;;;6.55;100.00
7962;BME280;4026;43.652;24.906;2023-11-21T01:24:32;98922.22;;;6.56;100.00
7962;BME280;4026;43.652;24.906;2023-11-21T01:26:59;98934.00;;;6.57;100.00
7962;BME280;4026;43.652;24.906;2023-11-21T01:29:26;98926.69;;;6.52;100.00
7962;BME280;4026;43.652;24.906;2023-11-21T01:31:53;98921.97;;;6.46;100.00
7962;BME280;4026;43.652;24.906;2023-11-21T01:34:21;98913.59;;;6.44;100.00
7962;BME280;4026;43.652;24.906;2023-11-21T01:36:48;98914.41;;;6.45;100.00
7962;BME280;4026;43.652;24.906;2023-11-21T01:39:15;98916.22;;;6.43;100.00
7962;BME280;4026;43.652;24.906;2023-11-21T01:41:48;98919.13;;;6.51;100.00
7962;BME280;4026;43.652;24.906;2023-11-21T01:44:15;98910.69;;;6.50;100.00
7962;BME280;4026;43.652;24.906;2023-11-21T01:46:42;98906.72;;;6.46;100.00
7962;BME280;4026;43.652;24.906;2023-11-21T01:49:10;98894.91;;;6.45;100.00
7962;BME280;4026;43.652;24.906;2023-11-21T01:51:40;98891.66;;;6.43;100.00
7962;BME280;4026;43.652;24.906;2023-11-21T01:54:09;98891.84;;;6.40;100.00
7962;BME280;4026;43.652;24.906;2023-11-21T01:56:37;98892.47;;;6.44;100.00
7962;BME280;4026;43.652;24.906;2023-11-21T01:59:04;98879.78;;;6.44;100.00
7962;BME280;4026;43.652;24.906;2023-11-21T02:01:32;98879.66;;;6.45;100.00
7962;BME280;4026;43.652;24.906;2023-11-21T02:03:59;98881.31;;;6.46;100.00
7962;BME280;4026;43.652;24.906;2023-11-21T02:06:27;98877.78;;;6.49;100.00
7962;BME280;4026;43.652;24.906;2023-11-21T02:08:57;98883.56;;;6.51;100.00
7962;BME280;4026;43.652;24.906;2023-11-21T02:11:25;98881.22;;;6.48;100.00
7962;BME280;4026;43.652;24.906;2023-11-21T02:13:52;98876.94;;;6.48;100.00
7962;BME280;4026;43.652;24.906;2023-11-21T02:16:20;98881.50;;;6.43;100.00
7962;BME280;4026;43.652;24.906;2023-11-21T02:18:47;98879.50;;;6.48;100.00
7962;BME280;4026;43.652;24.906;2023-11-21T02:21:15;98879.50;;;6.48;100.00
7962;BME280;4026;43.652;24.906;2023-11-21T02:23:43;98884.38;;;6.51;100.00
7962;BME280;4026;43.652;24.906;2023-11-21T02:26:12;98881.84;;;6.51;100.00
7962;BME280;4026;43.652;24.906;2023-11-21T02:28:39;98889.84;;;6.60;100.00
7962;BME280;4026;43.652;24.906;2023-11-21T02:31:06;98884.06;;;6.57;100.00
7962;BME280;4026;43.652;24.906;2023-11-21T02:33:33;98887.47;;;6.56;100.00
7962;BME280;4026;43.652;24.906;2023-11-21T02:36:00;98896.66;;;6.59;100.00
7962;BME280;4026;43.652;24.906;2023-11-21T02:38:27;98892.75;;;6.68;100.00
7962;BME280;4026;43.652;24.906;2023-11-21T02:40:57;98890.03;;;6.71;100.00
7962;BME280;4026;43.652;24.906;2023-11-21T02:43:24;98890.84;;;6.71;100.00
7962;BME280;4026;43.652;24.906;2023-11-21T02:45:51;98886.75;;;6.69;100.00
7962;BME280;4026;43.652;24.906;2023-11-21T02:48:18;98888.22;;;6.73;100.00
7962;BME280;4026;43.652;24.906;2023-11-21T02:50:45;98887.28;;;6.74;100.00
7962;BME280;4026;43.652;24.906;2023-11-21T02:53:12;98872.97;;;6.73;100.00
7962;BME280;4026;43.652;24.906;2023-11-21T02:55:38;98886.75;;;6.69;100.00
7962;BME280;4026;43.652;24.906;2023-11-21T02:58:06;98884.88;;;6.72;100.00
7962;BME280;4026;43.652;24.906;2023-11-21T03:00:33;98886.56;;;6.72;100.00
7962;BME280;4026;43.652;24.906;2023-11-21T03:03:00;98882.13;;;6.75;100.00
7962;BME280;4026;43.652;24.906;2023-11-21T03:05:27;98888.03;;;6.76;100.00
7962;BME280;4026;43.652;24.906;2023-11-21T03:07:54;98887.84;;;6.79;100.00
7962;BME280;4026;43.652;24.906;2023-11-21T03:10:22;98886.84;;;6.82;100.00
7962;BME280;4026;43.652;24.906;2023-11-21T03:12:48;98884.38;;;6.80;100.00
7962;BME280;4026;43.652;24.906;2023-11-21T03:15:17;98882.75;;;6.79;100.00
7962;BME280;4026;43.652;24.906;2023-11-21T03:17:43;98883.56;;;6.79;100.00
7962;BME280;4026;43.652;24.906;2023-11-21T03:20:11;98884.56;;;6.77;100.00
7962;BME280;4026;43.652;24.906;2023-11-21T03:22:39;98886.41;;;6.75;100.00
7962;BME280;4026;43.652;24.906;2023-11-21T03:25:07;98883.94;;;6.73;100.00
7962;BME280;4026;43.652;24.906;2023-11-21T03:27:36;98885.84;;;6.70;100.00
7962;BME280;4026;43.652;24.906;2023-11-21T03:30:05;98892.00;;;6.66;100.00
7962;BME280;4026;43.652;24.906;2023-11-21T03:32:34;98882.41;;;6.71;100.00
7962;BME280;4026;43.652;24.906;2023-11-21T03:35:01;98881.41;;;6.73;100.00
7962;BME280;4026;43.652;24.906;2023-11-21T03:37:29;98879.69;;;6.74;100.00
7962;BME280;4026;43.652;24.906;2023-11-21T03:39:56;98880.59;;;6.73;100.00
7962;BME280;4026;43.652;24.906;2023-11-21T03:42:22;98880.47;;;6.74;100.00
7962;BME280;4026;43.652;24.906;2023-11-21T03:44:51;98887.47;;;6.71;100.00
7962;BME280;4026;43.652;24.906;2023-11-21T03:47:17;98889.09;;;6.72;100.00
7962;BME280;4026;43.652;24.906;2023-11-21T03:49:46;98890.19;;;6.68;100.00
7962;BME280;4026;43.652;24.906;2023-11-21T03:52:12;98885.84;;;6.70;100.00
7962;BME280;4026;43.652;24.906;2023-11-21T03:54:39;98890.75;;;6.73;100.00
7962;BME280;4026;43.652;24.906;2023-11-21T03:57:06;98883.41;;;6.68;100.00
7962;BME280;4026;43.652;24.906;2023-11-21T03:59:33;98880.22;;;6.65;100.00
7962;BME280;4026;43.652;24.906;2023-11-21T04:02:00;98883.69;;;6.64;100.00
7962;BME280;4026;43.652;24.906;2023-11-21T04:04:26;98888.75;;;6.64;100.00
7962;BME280;4026;43.652;24.906;2023-11-21T04:06:54;98893.84;;;6.64;100.00
7962;BME280;4026;43.652;24.906;2023-11-21T04:09:21;98892.19;;;6.63;100.00
7962;BME280;4026;43.652;24.906;2023-11-21T04:11:50;98900.91;;;6.58;100.00
7962;BME280;4026;43.652;24.906;2023-11-21T04:14:17;98889.03;;;6.59;100.00
7962;BME280;4026;43.652;24.906;2023-11-21T04:16:44;98893.00;;;6.63;100.00
7962;BME280;4026;43.652;24.906;2023-11-21T04:19:11;98898.94;;;6.64;100.00
7962;BME280;4026;43.652;24.906;2023-11-21T04:21:40;98898.94;;;6.64;100.00
7962;BME280;4026;43.652;24.906;2023-11-21T04:24:08;98886.59;;;6.57;100.00
7962;BME280;4026;43.652;24.906;2023-11-21T04:26:35;98888.22;;;6.58;100.00
7962;BME280;4026;43.652;24.906;2023-11-21T04:29:02;98886.22;;;6.49;100.00
7962;BME280;4026;43.652;24.906;2023-11-21T04:31:30;98887.66;;;6.53;100.00
7962;BME280;4026;43.652;24.906;2023-11-21T04:33:57;98890.94;;;6.55;100.00
7962;BME280;4026;43.652;24.906;2023-11-21T04:36:24;98894.03;;;6.61;100.00
7962;BME280;4026;43.652;24.906;2023-11-21T04:38:50;98891.31;;;6.64;100.00
7962;BME280;4026;43.652;24.906;2023-11-21T04:41:18;98894.84;;;6.61;100.00
7962;BME280;4026;43.652;24.906;2023-11-21T04:43:45;98897.47;;;6.60;100.00
7962;BME280;4026;43.652;24.906;2023-11-21T04:46:12;98895.84;;;6.58;100.00
7962;BME280;4026;43.652;24.906;2023-11-21T04:48:39;98904.38;;;6.57;100.00
7962;BME280;4026;43.652;24.906;2023-11-21T04:51:06;98900.00;;;6.60;100.00
7962;BME280;4026;43.652;24.906;2023-11-21T04:53:33;98902.72;;;6.56;100.00
7962;BME280;4026;43.652;24.906;2023-11-21T04:56:00;98902.16;;;6.51;100.00
7962;BME280;4026;43.652;24.906;2023-11-21T04:58:28;98893.91;;;6.48;100.00
7962;BME280;4026;43.652;24.906;2023-11-21T05:00:55;98897.25;;;6.48;100.00
7962;BME280;4026;43.652;24.906;2023-11-21T05:03:22;98904.00;;;6.49;100.00
7962;BME280;4026;43.652;24.906;2023-11-21T05:05:49;98905.06;;;6.45;100.00
7962;BME280;4026;43.652;24.906;2023-11-21T05:08:16;98906.72;;;6.46;100.00
7962;BME280;4026;43.652;24.906;2023-11-21T05:10:44;98901.28;;;6.52;100.00
7962;BME280;4026;43.652;24.906;2023-11-21T05:13:11;98901.00;;;6.57;100.00
7962;BME280;4026;43.652;24.906;2023-11-21T05:15:39;98898.94;;;6.64;100.00
7962;BME280;4026;43.652;24.906;2023-11-21T05:18:06;98900.56;;;6.65;100.00
7962;BME280;4026;43.652;24.906;2023-11-21T05:20:33;98903.81;;;6.67;100.00
7962;BME280;4026;43.652;24.906;2023-11-21T05:23:00;98905.25;;;6.71;100.00
7962;BME280;4026;43.652;24.906;2023-11-21T05:25:27;98906.19;;;6.70;100.00
7962;BME280;4026;43.652;24.906;2023-11-21T05:27:53;98903.00;;;6.66;100.00
7962;BME280;4026;43.652;24.906;2023-11-21T05:30:21;98900.38;;;6.68;100.00
7962;BME280;4026;43.652;24.906;2023-11-21T05:32:49;98900.19;;;6.71;100.00
7962;BME280;4026;43.652;24.906;2023-11-21T05:35:16;98914.50;;;6.72;100.00
7962;BME280;4026;43.652;24.906;2023-11-21T05:37:43;98921.25;;;6.73;100.00
7962;BME280;4026;43.652;24.906;2023-11-21T05:40:11;98928.69;;;6.76;100.00
7962;BME280;4026;43.652;24.906;2023-11-21T05:42:39;98918.53;;;6.76;100.00
7962;BME280;4026;43.652;24.906;2023-11-21T05:45:07;98930.69;;;6.85;100.00
7962;BME280;4026;43.652;24.906;2023-11-21T05:47:37;98930.41;;;6.90;100.00
7962;BME280;4026;43.652;24.906;2023-11-21T05:50:07;98940.09;;;6.97;100.00
7962;BME280;4026;43.652;24.906;2023-11-21T05:52:36;98935.75;;;6.99;100.00
7962;BME280;4026;43.652;24.906;2023-11-21T05:55:03;98927.22;;;7.00;100.00
7962;BME280;4026;43.652;24.906;2023-11-21T05:57:32;98926.13;;;7.05;100.00
7962;BME280;4026;43.652;24.906;2023-11-21T05:59:59;98937.47;;;7.13;100.00
7962;BME280;4026;43.652;24.906;2023-11-21T06:02:28;98944.72;;;7.19;100.00
7962;BME280;4026;43.652;24.906;2023-11-21T06:04:55;98944.44;;;7.24;100.00
7962;BME280;4026;43.652;24.906;2023-11-21T06:07:23;98942.63;;;7.26;100.00
7962;BME280;4026;43.652;24.906;2023-11-21T06:09:50;98938.81;;;7.33;100.00
7962;BME280;4026;43.652;24.906;2023-11-21T06:12:17;98948.59;;;7.39;100.00
7962;BME280;4026;43.652;24.906;2023-11-21T06:14:45;98956.66;;;7.46;100.00
7962;BME280;4026;43.652;24.906;2023-11-21T06:17:13;98955.97;;;7.71;100.00
7962;BME280;4026;43.652;24.906;2023-11-21T06:19:40;98951.19;;;7.79;100.00
7962;BME280;4026;43.652;24.906;2023-11-21T06:22:07;98951.66;;;7.86;100.00
7962;BME280;4026;43.652;24.906;2023-11-21T06:24:36;98949.25;;;7.97;99.81
7962;BME280;4026;43.652;24.906;2023-11-21T06:27:03;98943.16;;;8.12;98.50
7962;BME280;4026;43.652;24.906;2023-11-21T06:29:30;98944.81;;;8.26;97.54
7962;BME280;4026;43.652;24.906;2023-11-21T06:31:58;98945.84;;;8.36;97.73
7962;BME280;4026;43.652;24.906;2023-11-21T06:34:25;98942.94;;;8.55;96.41
7962;BME280;4026;43.652;24.906;2023-11-21T06:36:53;98936.69;;;8.72;95.04
7962;BME280;4026;43.652;24.906;2023-11-21T06:39:20;98942.41;;;8.89;94.39
7962;BME280;4026;43.652;24.906;2023-11-21T06:41:49;98938.81;;;9.04;94.48
7962;BME280;4026;43.652;24.906;2023-11-21T06:44:16;98940.72;;;9.13;94.14
7962;BME280;4026;43.652;24.906;2023-11-21T06:46:42;98942.38;;;9.14;93.89
7962;BME280;4026;43.652;24.906;2023-11-21T06:49:10;98943.56;;;9.21;93.78
7962;BME280;4026;43.652;24.906;2023-11-21T06:51:37;98948.88;;;9.31;94.03
7962;BME280;4026;43.652;24.906;2023-11-21T06:54:05;98952.53;;;9.40;94.58
7962;BME280;4026;43.652;24.906;2023-11-21T06:56:32;98948.59;;;9.47;93.91
7962;BME280;4026;43.652;24.906;2023-11-21T06:59:00;98955.53;;;9.58;93.36
7962;BME280;4026;43.652;24.906;2023-11-21T07:01:28;98957.50;;;9.65;92.29
7962;BME280;4026;43.652;24.906;2023-11-21T07:03:55;98946.25;;;9.81;91.53
7962;BME280;4026;43.652;24.906;2023-11-21T07:06:22;98940.47;;;9.90;91.70
7962;BME280;4026;43.652;24.906;2023-11-21T07:08:48;98936.97;;;9.91;92.63
7962;BME280;4026;43.652;24.906;2023-11-21T07:11:15;98936.53;;;9.97;92.19
7962;BME280;4026;43.652;24.906;2023-11-21T07:13:42;98939.56;;;10.02;90.93
7962;BME280;4026;43.652;24.906;2023-11-21T07:16:10;98929.41;;;10.13;90.71
7962;BME280;4026;43.652;24.906;2023-11-21T07:18:37;98933.00;;;10.11;86.54
7962;BME280;4026;43.652;24.906;2023-11-21T07:21:04;98928.44;;;10.27;88.97
7962;BME280;4026;43.652;24.906;2023-11-21T07:23:31;98930.84;;;10.29;84.83
7962;BME280;4026;43.652;24.906;2023-11-21T07:25:58;98932.75;;;10.49;84.07
7962;BME280;4026;43.652;24.906;2023-11-21T07:28:24;98933.34;;;10.53;83.38
7962;BME280;4026;43.652;24.906;2023-11-21T07:30:52;98932.22;;;10.68;83.49
7962;BME280;4026;43.652;24.906;2023-11-21T07:33:20;98932.31;;;10.78;82.37
7962;BME280;4026;43.652;24.906;2023-11-21T07:35:47;98935.69;;;11.01;86.87
7962;BME280;4026;43.652;24.906;2023-11-21T07:38:14;98940.34;;;11.07;83.85
7962;BME280;4026;43.652;24.906;2023-11-21T07:40:41;98936.72;;;11.09;81.01
7962;BME280;4026;43.652;24.906;2023-11-21T07:43:08;98936.81;;;11.19;80.94
7962;BME280;4026;43.652;24.906;2023-11-21T07:45:35;98939.56;;;11.50;85.20
7962;BME280;4026;43.652;24.906;2023-11-21T07:48:03;98941.38;;;11.70;84.33
7962;BME280;4026;43.652;24.906;2023-11-21T07:50:31;98935.88;;;11.86;82.11
7962;BME280;4026;43.652;24.906;2023-11-21T07:52:58;98936.53;;;11.99;83.01
7962;BME280;4026;43.652;24.906;2023-11-21T07:55:25;98932.50;;;12.07;82.75
7962;BME280;4026;43.652;24.906;2023-11-21T07:57:52;98935.53;;;12.12;81.08
7962;BME280;4026;43.652;24.906;2023-11-21T08:00:19;98936.84;;;12.06;78.25
7962;BME280;4026;43.652;24.906;2023-11-21T08:02:47;98939.03;;;12.11;78.44
7962;BME280;4026;43.652;24.906;2023-11-21T08:05:14;98939.03;;;12.11;77.54
7962;BME280;4026;43.652;24.906;2023-11-21T08:07:42;98929.34;;;12.14;78.90
7962;BME280;4026;43.652;24.906;2023-11-21T08:10:09;98938.41;;;12.18;77.51
7962;BME280;4026;43.652;24.906;2023-11-21T08:12:36;98930.47;;;12.21;78.92
7962;BME280;4026;43.652;24.906;2023-11-21T08:15:05;98932.91;;;12.23;76.59
7962;BME280;4026;43.652;24.906;2023-11-21T08:17:33;98928.22;;;12.28;76.13
7962;BME280;4026;43.652;24.906;2023-11-21T08:20:00;98933.88;;;12.53;75.87
7962;BME280;4026;43.652;24.906;2023-11-21T08:22:29;98930.34;;;12.44;74.70
7962;BME280;4026;43.652;24.906;2023-11-21T08:24:57;98938.22;;;12.52;74.51
7962;BME280;4026;43.652;24.906;2023-11-21T08:27:24;98936.63;;;12.61;75.53
7962;BME280;4026;43.652;24.906;2023-11-21T08:29:51;98922.44;;;12.87;76.48
7962;BME280;4026;43.652;24.906;2023-11-21T08:32:18;98934.66;;;13.05;78.39
7962;BME280;4026;43.652;24.906;2023-11-21T08:34:45;98939.94;;;13.13;75.84
7962;BME280;4026;43.652;24.906;2023-11-21T08:37:14;98941.22;;;13.28;72.20
7962;BME280;4026;43.652;24.906;2023-11-21T08:39:41;98938.06;;;13.65;72.16
7962;BME280;4026;43.652;24.906;2023-11-21T08:42:10;98946.16;;;13.90;68.47
7962;BME280;4026;43.652;24.906;2023-11-21T08:44:36;98939.00;;;14.03;70.31
7962;BME280;4026;43.652;24.906;2023-11-21T08:47:04;98944.16;;;14.03;66.08
7962;BME280;4026;43.652;24.906;2023-11-21T08:49:31;98947.09;;;14.27;63.64
7962;BME280;4026;43.652;24.906;2023-11-21T08:51:57;98940.72;;;14.41;61.36
7962;BME280;4026;43.652;24.906;2023-11-21T08:54:25;98937.97;;;14.62;61.58
7962;BME280;4026;43.652;24.906;2023-11-21T08:56:52;98948.22;;;14.82;59.28
7962;BME280;4026;43.652;24.906;2023-11-21T08:59:21;98933.53;;;14.92;61.37
7962;BME280;4026;43.652;24.906;2023-11-21T09:01:48;98929.22;;;14.92;59.79
7962;BME280;4026;43.652;24.906;2023-11-21T09:04:15;98924.75;;;15.12;61.07
7962;BME280;4026;43.652;24.906;2023-11-21T09:06:42;98922.56;;;15.17;59.94
7962;BME280;4026;43.652;24.906;2023-11-21T09:09:09;98918.28;;;15.08;57.50
7962;BME280;4026;43.652;24.906;2023-11-21T09:11:36;98912.75;;;15.31;59.03
7962;BME280;4026;43.652;24.906;2023-11-21T09:14:03;98910.25;;;15.39;60.05
7962;BME280;4026;43.652;24.906;2023-11-21T09:16:31;98909.59;;;15.55;60.94
7962;BME280;4026;43.652;24.906;2023-11-21T09:18:58;98905.78;;;15.77;58.78
7962;BME280;4026;43.652;24.906;2023-11-21T09:21:25;98903.13;;;15.87;57.16
7962;BME280;4026;43.652;24.906;2023-11-21T09:23:53;98895.88;;;16.34;58.68
7962;BME280;4026;43.652;24.906;2023-11-21T09:26:19;98904.16;;;16.20;56.34
7962;BME280;4026;43.652;24.906;2023-11-21T09:28:46;98906.50;;;16.31;56.14
7962;BME280;4026;43.652;24.906;2023-11-21T09:31:13;98905.50;;;16.24;54.02
7962;BME280;4026;43.652;24.906;2023-11-21T09:33:42;98896.13;;;15.79;54.23
7962;BME280;4026;43.652;24.906;2023-11-21T09:36:11;98896.94;;;15.79;55.99
7962;BME280;4026;43.652;24.906;2023-11-21T09:38:40;98896.03;;;15.53;54.84
7962;BME280;4026;43.652;24.906;2023-11-21T09:41:21;98890.28;;;15.41;55.93
7962;BME280;4026;43.652;24.906;2023-11-21T09:43:52;98882.22;;;15.54;59.43
7962;BME280;4026;43.652;24.906;2023-11-21T09:46:23;98878.53;;;15.74;57.95
7962;BME280;4026;43.652;24.906;2023-11-21T09:48:52;98886.22;;;16.10;61.01
7962;BME280;4026;43.652;24.906;2023-11-21T09:51:24;98880.88;;;15.86;55.13
7962;BME280;4026;43.652;24.906;2023-11-21T09:53:57;98877.75;;;16.26;60.74
7962;BME280;4026;43.652;24.906;2023-11-21T09:56:26;98875.94;;;16.44;53.69
7962;BME280;4026;43.652;24.906;2023-11-21T09:58:55;98857.41;;;16.49;54.31
7962;BME280;4026;43.652;24.906;2023-11-21T10:01:25;98858.91;;;16.60;54.39
7962;BME280;4026;43.652;24.906;2023-11-21T10:03:55;98859.09;;;16.66;53.55
7962;BME280;4026;43.652;24.906;2023-11-21T10:06:22;98858.78;;;16.61;53.66
7962;BME280;4026;43.652;24.906;2023-11-21T10:08:51;98860.22;;;16.64;51.88
7962;BME280;4026;43.652;24.906;2023-11-21T10:11:19;98861.03;;;16.30;52.22
7962;BME280;4026;43.652;24.906;2023-11-21T10:13:47;98852.88;;;16.17;53.21
7962;BME280;4026;43.652;24.906;2023-11-21T10:16:18;98845.00;;;15.92;52.85
7962;BME280;4026;43.652;24.906;2023-11-21T10:18:48;98847.41;;;16.20;52.25
7962;BME280;4026;43.652;24.906;2023-11-21T10:21:17;98847.63;;;16.00;51.28
7962;BME280;4026;43.652;24.906;2023-11-21T10:23:44;98838.44;;;16.24;52.42
7962;BME280;4026;43.652;24.906;2023-11-21T10:26:12;98837.81;;;16.64;51.96
7962;BME280;4026;43.652;24.906;2023-11-21T10:28:41;98831.31;;;16.94;53.36
7962;BME280;4026;43.652;24.906;2023-11-21T10:31:21;98834.09;;;17.09;50.59
7962;BME280;4026;43.652;24.906;2023-11-21T10:33:49;98818.28;;;17.29;52.29
7962;BME280;4026;43.652;24.906;2023-11-21T10:36:25;98821.69;;;17.37;48.50
7962;BME280;4026;43.652;24.906;2023-11-21T10:38:52;98819.09;;;17.37;48.79
7962;BME280;4026;43.652;24.906;2023-11-21T10:41:20;98809.72;;;17.36;50.68
7962;BME280;4026;43.652;24.906;2023-11-21T10:43:46;98798.13;;;17.49;51.25
7962;BME280;4026;43.652;24.906;2023-11-21T10:46:14;98803.59;;;17.29;49.75
7962;BME280;4026;43.652;24.906;2023-11-21T10:48:41;98795.50;;;17.08;48.49
7962;BME280;4026;43.652;24.906;2023-11-21T10:51:09;98781.31;;;17.20;49.73
7962;BME280;4026;43.652;24.906;2023-11-21T10:53:39;98774.03;;;17.48;53.36
7962;BME280;4026;43.652;24.906;2023-11-21T10:56:08;98764.00;;;17.53;52.54
7962;BME280;4026;43.652;24.906;2023-11-21T10:58:38;98768.03;;;17.48;52.20
7962;BME280;4026;43.652;24.906;2023-11-21T11:01:06;98764.50;;;17.32;53.48
7962;BME280;4026;43.652;24.906;2023-11-21T11:03:36;98764.69;;;17.23;53.42
7962;BME280;4026;43.652;24.906;2023-11-21T11:06:04;98762.41;;;17.19;53.85
7962;BME280;4026;43.652;24.906;2023-11-21T11:08:36;98748.53;;;17.20;53.79
7962;BME280;4026;43.652;24.906;2023-11-21T11:11:05;98754.97;;;17.08;53.50
7962;BME280;4026;43.652;24.906;2023-11-21T11:13:33;98744.63;;;17.00;52.89
7962;BME280;4026;43.652;24.906;2023-11-21T11:16:00;98728.97;;;16.85;53.10
7962;BME280;4026;43.652;24.906;2023-11-21T11:18:28;98726.97;;;16.71;56.14
7962;BME280;4026;43.652;24.906;2023-11-21T11:21:01;98722.44;;;16.65;56.78
7962;BME280;4026;43.652;24.906;2023-11-21T11:23:45;98714.69;;;16.57;59.39
7962;BME280;4026;43.652;24.906;2023-11-21T11:26:26;98718.88;;;16.49;59.25
7962;BME280;4026;43.652;24.906;2023-11-21T11:29:03;98708.19;;;16.36;61.11
7962;BME280;4026;43.652;24.906;2023-11-21T11:31:40;98705.41;;;16.21;60.99
7962;BME280;4026;43.652;24.906;2023-11-21T11:34:19;98707.19;;;16.21;61.07
7962;BME280;4026;43.652;24.906;2023-11-21T11:36:55;98701.91;;;15.96;62.29
7962;BME280;4026;43.652;24.906;2023-11-21T11:39:28;98695.78;;;15.89;64.23
7962;BME280;4026;43.652;24.906;2023-11-21T11:41:57;98690.03;;;16.03;62.88
7962;BME280;4026;43.652;24.906;2023-11-21T11:44:47;98684.75;;;15.79;64.75
7962;BME280;4026;43.652;24.906;2023-11-21T11:47:22;98683.16;;;15.78;65.17
7962;BME280;4026;43.652;24.906;2023-11-21T11:50:02;98676.06;;;15.80;63.77
7962;BME280;4026;43.652;24.906;2023-11-21T11:52:39;98675.25;;;15.79;64.69
7962;BME280;4026;43.652;24.906;2023-11-21T11:55:08;98676.75;;;15.90;63.67
7962;BME280;4026;43.652;24.906;2023-11-21T11:57:38;98668.13;;;16.07;64.28
7962;BME280;4026;43.652;24.906;2023-11-21T12:00:16;98667.78;;;16.11;61.77
7962;BME280;4026;43.652;24.906;2023-11-21T12:02:45;98667.16;;;16.09;60.29
7962;BME280;4026;43.652;24.906;2023-11-21T12:05:14;98662.53;;;16.20;59.60
7962;BME280;4026;43.652;24.906;2023-11-21T12:07:43;98659.44;;;16.17;60.01
7962;BME280;4026;43.652;24.906;2023-11-21T12:10:12;98663.66;;;16.18;58.37
7962;BME280;4026;43.652;24.906;2023-11-21T12:12:44;98650.09;;;16.16;59.62
7962;BME280;4026;43.652;24.906;2023-11-21T12:15:12;98657.84;;;16.24;58.53
7962;BME280;4026;43.652;24.906;2023-11-21T12:17:39;98665.63;;;16.32;57.12
7962;BME280;4026;43.652;24.906;2023-11-21T12:20:07;98658.19;;;16.37;58.06
7962;BME280;4026;43.652;24.906;2023-11-21T12:22:42;98657.56;;;16.43;58.01
7962;BME280;4026;43.652;24.906;2023-11-21T12:25:09;98654.69;;;16.46;57.75
7962;BME280;4026;43.652;24.906;2023-11-21T12:27:43;98651.28;;;16.46;55.40
7962;BME280;4026;43.652;24.906;2023-11-21T12:30:12;98654.84;;;16.45;56.17
7962;BME280;4026;43.652;24.906;2023-11-21T12:32:41;98661.25;;;16.33;56.15
7962;BME280;4026;43.652;24.906;2023-11-21T12:35:09;98656.84;;;16.17;57.41
7962;BME280;4026;43.652;24.906;2023-11-21T12:37:37;98662.31;;;16.14;57.21
7962;BME280;4026;43.652;24.906;2023-11-21T12:40:05;98665.19;;;16.02;57.56
7962;BME280;4026;43.652;24.906;2023-11-21T12:42:33;98655.50;;;15.96;58.21
7962;BME280;4026;43.652;24.906;2023-11-21T12:45:10;98650.63;;;15.85;59.56
7962;BME280;4026;43.652;24.906;2023-11-21T12:47:41;98654.31;;;15.74;60.01
7962;BME280;4026;43.652;24.906;2023-11-21T12:50:09;98652.41;;;15.58;61.14
7962;BME280;4026;43.652;24.906;2023-11-21T12:52:45;98651.47;;;15.59;61.75
7962;BME280;4026;43.652;24.906;2023-11-21T12:55:15;98652.06;;;15.53;61.26
7962;BME280;4026;43.652;24.906;2023-11-21T12:57:43;98652.53;;;15.49;61.77
7962;BME280;4026;43.652;24.906;2023-11-21T13:00:13;98650.69;;;15.41;62.66
7962;BME280;4026;43.652;24.906;2023-11-21T13:02:53;98642.91;;;15.33;65.31
7962;BME280;4026;43.652;24.906;2023-11-21T13:05:27;98637.19;;;15.13;66.30
7962;BME280;4026;43.652;24.906;2023-11-21T13:07:57;98631.19;;;15.12;66.96
7962;BME280;4026;43.652;24.906;2023-11-21T13:10:27;98636.66;;;15.09;68.45
7962;BME280;4026;43.652;24.906;2023-11-21T13:12:56;98640.25;;;15.16;68.55
7962;BME280;4026;43.652;24.906;2023-11-21T13:15:27;98632.84;;;15.13;68.77
7962;BME280;4026;43.652;24.906;2023-11-21T13:17:57;98633.78;;;15.12;69.27